Time;durP1;ratioP1;P1;durP2;ratioP2;P2;SDS_P1;SDS_P2;PMS_P1;PMS_P2;Temp;Humidity;BMP_temperature;BMP_pressure;BME280_temperature;BME280_humidity;BME280_pressure;Samples;Min_cycle;Max_cycle;Signal;HPM_P1;HPM_P2
2022/04/12 04:02:06;;;;;;;4.57;4.28;;;4.00;99.90;;;;;;5209077;23;20294;-69
2022/04/12 04:04:33;;;;;;;4.68;4.28;;;4.00;99.90;;;;;;4976150;28;20296;-67
2022/04/12 04:06:59;;;;;;;5.18;4.78;;;4.00;99.90;;;;;;4989299;28;20212;-68
2022/04/12 04:09:26;;;;;;;11.00;5.78;;;3.90;99.90;;;;;;4986577;28;20207;-68
2022/04/12 04:11:53;;;;;;;6.25;5.30;;;3.90;99.90;;;;;;4960601;28;20229;-68
2022/04/12 04:14:21;;;;;;;5.00;4.70;;;3.90;99.90;;;;;;4959321;28;20211;-68
2022/04/12 04:16:48;;;;;;;7.00;6.35;;;3.90;99.90;;;;;;4950515;28;20218;-69
2022/04/12 04:19:16;;;;;;;4.75;4.47;;;4.00;99.90;;;;;;4951821;28;20627;-68
2022/04/12 04:21:42;;;;;;;5.03;4.57;;;3.90;99.90;;;;;;4962361;28;20879;-68
2022/04/12 04:24:09;;;;;;;5.10;4.70;;;3.90;99.90;;;;;;4961341;28;20219;-69
2022/04/12 04:26:36;;;;;;;6.72;4.75;;;3.90;99.90;;;;;;4988406;23;20224;-68
2022/04/12 04:29:02;;;;;;;5.30;4.85;;;3.90;99.90;;;;;;4982491;28;20215;-68
2022/04/12 04:31:29;;;;;;;5.65;4.70;;;3.90;99.90;;;;;;4976310;28;20898;-67
2022/04/12 04:33:56;;;;;;;7.43;4.85;;;3.90;99.90;;;;;;4973968;28;20286;-67
2022/04/12 04:36:24;;;;;;;5.45;5.05;;;4.00;99.90;;;;;;4966716;28;20248;-67
2022/04/12 04:38:50;;;;;;;4.65;4.35;;;4.00;99.90;;;;;;4959076;28;20204;-67
2022/04/12 04:41:17;;;;;;;4.88;4.40;;;4.00;99.90;;;;;;4959251;28;20209;-67
2022/04/12 04:43:45;;;;;;;5.07;4.68;;;4.10;99.90;;;;;;4950189;28;20209;-68
2022/04/12 04:46:12;;;;;;;5.15;4.65;;;4.10;99.90;;;;;;4952682;28;20225;-68
2022/04/12 04:48:39;;;;;;;4.40;4.10;;;4.10;99.90;;;;;;4957673;28;20315;-67
2022/04/12 04:51:06;;;;;;;7.28;4.18;;;4.20;99.90;;;;;;4961528;28;20288;-69
2022/04/12 04:53:36;;;;;;;4.47;4.18;;;4.20;99.90;;;;;;4952565;28;20206;-68
2022/04/12 04:56:03;;;;;;;5.13;4.20;;;4.30;99.90;;;;;;4950821;28;20256;-69
2022/04/12 04:58:30;;;;;;;5.00;4.60;;;4.30;99.90;;;;;;4961395;28;20220;-68
2022/04/12 05:00:57;;;;;;;4.47;4.20;;;4.40;99.90;;;;;;4937792;29;20225;-68
2022/04/12 05:03:23;;;;;;;4.75;4.40;;;4.40;99.90;;;;;;4963261;28;20662;-68
2022/04/12 05:05:50;;;;;;;5.97;4.25;;;4.50;99.90;;;;;;4952238;28;20221;-69
2022/04/12 05:08:17;;;;;;;5.50;4.97;;;4.60;99.90;;;;;;4954426;28;20240;-67
2022/04/12 05:10:45;;;;;;;5.68;4.22;;;4.70;99.90;;;;;;4950524;28;20236;-67
2022/04/12 05:13:11;;;;;;;7.47;4.95;;;4.80;99.90;;;;;;4965138;28;20699;-68
2022/04/12 05:15:38;;;;;;;8.38;5.40;;;4.90;99.90;;;;;;4957106;28;20890;-68
2022/04/12 05:18:05;;;;;;;4.40;4.10;;;4.90;99.90;;;;;;4951853;28;20205;-69
2022/04/12 05:20:32;;;;;;;10.27;4.43;;;5.00;99.90;;;;;;4950381;28;20236;-69
2022/04/12 05:22:58;;;;;;;5.03;4.45;;;5.00;99.90;;;;;;4965335;28;20221;-68
2022/04/12 05:25:25;;;;;;;4.00;3.70;;;5.10;99.90;;;;;;4959216;28;20209;-67
2022/04/12 05:27:53;;;;;;;3.80;3.60;;;5.20;99.90;;;;;;4957851;28;20232;-67
2022/04/12 05:30:21;;;;;;;4.25;4.03;;;5.20;99.90;;;;;;4960408;28;20587;-67
2022/04/12 05:32:48;;;;;;;4.47;4.18;;;5.30;99.90;;;;;;4964965;28;20219;-67
2022/04/12 05:35:15;;;;;;;4.43;4.07;;;5.30;99.90;;;;;;4961897;28;20774;-67
2022/04/12 05:37:43;;;;;;;4.50;4.30;;;5.40;99.90;;;;;;4963240;28;20216;-66
2022/04/12 05:40:11;;;;;;;5.07;4.57;;;5.40;99.90;;;;;;4951351;28;20286;-69
2022/04/12 05:42:38;;;;;;;5.00;4.60;;;5.50;99.90;;;;;;4962116;28;20729;-68
2022/04/12 05:45:07;;;;;;;4.78;4.40;;;5.60;99.90;;;;;;4961264;28;20201;-68
2022/04/12 05:47:44;;;;;;;4.68;4.50;;;5.60;99.90;;;;;;4971622;28;20247;-68
2022/04/12 05:50:13;;;;;;;3.97;3.72;;;5.80;99.90;;;;;;4960685;28;20635;-67
2022/04/12 05:52:40;;;;;;;4.65;4.25;;;5.80;99.90;;;;;;4934801;29;20287;-70
2022/04/12 05:55:08;;;;;;;3.67;3.45;;;5.90;99.90;;;;;;4958658;28;20197;-69
2022/04/12 05:57:39;;;;;;;4.35;4.05;;;6.00;99.90;;;;;;4958995;28;20276;-68
2022/04/12 06:00:08;;;;;;;4.70;4.32;;;6.20;99.90;;;;;;4957934;28;20209;-69
2022/04/12 06:02:35;;;;;;;4.55;4.25;;;6.30;99.90;;;;;;4956039;28;20193;-68
2022/04/12 06:05:03;;;;;;;4.60;4.30;;;6.50;99.90;;;;;;4972606;28;20208;-69
2022/04/12 06:07:34;;;;;;;4.07;3.90;;;6.60;99.90;;;;;;4959738;28;20226;-68
2022/04/12 06:10:01;;;;;;;3.90;3.70;;;6.70;99.90;;;;;;4963311;28;20201;-68
2022/04/12 06:12:28;;;;;;;3.60;3.40;;;6.80;99.90;;;;;;4952527;28;20232;-69
2022/04/12 06:14:55;;;;;;;4.70;4.40;;;6.90;99.90;;;;;;4953295;28;20206;-68
2022/04/12 06:17:30;;;;;;;2.97;2.78;;;7.00;99.90;;;;;;4951368;28;20244;-69
2022/04/12 06:20:00;;;;;;;4.10;3.90;;;7.00;99.90;;;;;;4961211;28;20235;-69
2022/04/12 06:22:27;;;;;;;3.75;3.22;;;7.10;99.90;;;;;;4960433;28;20232;-69
2022/04/12 06:24:54;;;;;;;5.82;3.22;;;7.10;99.90;;;;;;4962247;28;20263;-69
2022/04/12 06:27:33;;;;;;;3.28;3.03;;;7.10;99.90;;;;;;4963133;28;20759;-69
2022/04/12 06:30:05;;;;;;;3.15;3.05;;;7.20;99.90;;;;;;4960134;28;20201;-69
2022/04/12 06:32:33;;;;;;;2.72;2.63;;;7.20;99.90;;;;;;4967540;28;20271;-68
2022/04/12 06:35:00;;;;;;;3.85;3.55;;;7.40;99.90;;;;;;4964934;28;20554;-68
2022/04/12 06:37:27;;;;;;;5.40;3.25;;;7.50;99.90;;;;;;4957811;28;20233;-69
2022/04/12 06:39:54;;;;;;;4.47;4.18;;;7.60;99.90;;;;;;4968673;28;20208;-68
2022/04/12 06:42:21;;;;;;;3.63;3.42;;;7.80;99.90;;;;;;4958746;28;20205;-69
2022/04/12 06:44:48;;;;;;;3.88;3.67;;;7.80;99.90;;;;;;4966313;28;20288;-67
2022/04/12 06:47:16;;;;;;;4.32;4.13;;;7.90;99.90;;;;;;4945395;28;20698;-67
2022/04/12 06:49:45;;;;;;;2.60;2.40;;;8.00;99.90;;;;;;4945793;29;20201;-67
2022/04/12 06:52:12;;;;;;;3.95;3.75;;;8.10;99.90;;;;;;4959908;28;20232;-67
2022/04/12 06:54:39;;;;;;;4.40;4.00;;;8.20;99.90;;;;;;4956439;28;20678;-68
2022/04/12 06:57:06;;;;;;;4.35;3.35;;;8.20;99.90;;;;;;4968130;28;20220;-68
2022/04/12 06:59:33;;;;;;;2.70;2.70;;;8.30;99.90;;;;;;4962401;28;20261;-68
2022/04/12 07:02:01;;;;;;;4.30;3.92;;;8.40;99.90;;;;;;4958895;28;20202;-71
2022/04/12 07:04:27;;;;;;;3.42;3.22;;;8.50;99.90;;;;;;4942654;28;20277;-67
2022/04/12 07:06:56;;;;;;;3.47;3.38;;;8.50;99.90;;;;;;4951963;28;20232;-68
2022/04/12 07:09:23;;;;;;;3.75;3.55;;;8.60;99.90;;;;;;4952195;28;20325;-67
2022/04/12 07:11:50;;;;;;;3.30;3.20;;;8.70;99.90;;;;;;4943319;28;20224;-68
2022/04/12 07:14:16;;;;;;;4.55;2.75;;;8.80;99.90;;;;;;4955173;28;20208;-68
2022/04/12 07:16:43;;;;;;;3.90;3.47;;;8.90;99.90;;;;;;4963930;28;20328;-69
2022/04/12 07:19:10;;;;;;;3.40;3.20;;;9.00;99.90;;;;;;4952946;28;20205;-69
2022/04/12 07:21:37;;;;;;;3.05;2.85;;;9.00;99.90;;;;;;4959326;28;20291;-68
2022/04/12 07:24:06;;;;;;;3.88;3.65;;;9.20;99.90;;;;;;4944346;28;20216;-70
2022/04/12 07:26:33;;;;;;;3.22;2.95;;;9.30;99.90;;;;;;4959073;28;20713;-67
2022/04/12 07:29:00;;;;;;;6.30;3.30;;;9.40;99.90;;;;;;4957020;28;20216;-68
2022/04/12 07:31:27;;;;;;;3.30;3.10;;;9.50;99.90;;;;;;4965043;28;20208;-68
2022/04/12 07:33:54;;;;;;;3.17;2.97;;;9.60;99.90;;;;;;4961057;28;20205;-68
2022/04/12 07:36:21;;;;;;;4.78;4.47;;;9.70;99.90;;;;;;4947810;28;20236;-68
2022/04/12 07:38:48;;;;;;;3.35;3.20;;;9.80;99.90;;;;;;4948835;28;20201;-69
2022/04/12 07:41:17;;;;;;;2.72;2.63;;;9.90;99.90;;;;;;4949773;28;20244;-67
2022/04/12 07:43:45;;;;;;;3.17;2.97;;;10.10;99.90;;;;;;4948677;28;20205;-67
2022/04/12 07:46:12;;;;;;;3.15;2.95;;;10.10;99.90;;;;;;4958065;28;20288;-67
2022/04/12 07:48:39;;;;;;;3.13;2.92;;;10.20;99.90;;;;;;4949179;28;20638;-67
2022/04/12 07:51:05;;;;;;;3.65;3.42;;;10.30;99.90;;;;;;4943854;28;20303;-67
2022/04/12 07:53:32;;;;;;;2.78;2.67;;;10.30;99.90;;;;;;4951720;28;20644;-69
2022/04/12 07:55:59;;;;;;;4.35;4.10;;;10.40;99.90;;;;;;4937561;29;20240;-67
2022/04/12 07:58:27;;;;;;;3.97;3.67;;;10.40;99.90;;;;;;4959523;28;20228;-66
2022/04/12 08:00:54;;;;;;;3.78;3.47;;;10.50;99.90;;;;;;4946042;28;20233;-67
2022/04/12 08:03:21;;;;;;;2.33;2.33;;;10.60;99.90;;;;;;4968675;28;20208;-68
2022/04/12 08:05:47;;;;;;;1.98;1.98;;;10.60;99.90;;;;;;4952386;28;21938;-67
2022/04/12 08:08:14;;;;;;;2.17;2.10;;;10.70;99.90;;;;;;4958931;28;20295;-68
2022/04/12 08:10:41;;;;;;;3.03;2.90;;;10.80;99.90;;;;;;4962343;28;20204;-67
2022/04/12 08:13:08;;;;;;;2.83;2.63;;;10.90;99.90;;;;;;4953576;28;20248;-67
2022/04/12 08:15:37;;;;;;;2.83;2.72;;;11.00;99.90;;;;;;4951400;28;20224;-69
2022/04/12 08:18:03;;;;;;;2.92;2.83;;;11.10;99.90;;;;;;4971053;28;20278;-68
2022/04/12 08:20:30;;;;;;;3.53;3.22;;;11.20;99.90;;;;;;4962981;28;20213;-67
2022/04/12 08:22:57;;;;;;;4.35;3.95;;;11.30;99.90;;;;;;4959446;28;20263;-67
2022/04/12 08:25:24;;;;;;;3.30;3.17;;;11.40;99.90;;;;;;4954678;28;20288;-66
2022/04/12 08:27:50;;;;;;;2.15;2.15;;;11.50;99.90;;;;;;4946730;28;20254;-66
2022/04/12 08:30:17;;;;;;;4.03;3.78;;;11.60;99.90;;;;;;4962913;28;20229;-68
2022/04/12 08:32:45;;;;;;;2.53;2.40;;;11.60;99.90;;;;;;4957348;28;20229;-67
2022/04/12 08:35:12;;;;;;;3.92;3.53;;;11.60;99.90;;;;;;4966665;28;20510;-66
2022/04/12 08:37:39;;;;;;;2.85;2.75;;;11.70;99.90;;;;;;4964576;28;20236;-67
2022/04/12 08:40:07;;;;;;;2.88;2.72;;;11.70;99.90;;;;;;4958711;28;20213;-67
2022/04/12 08:42:33;;;;;;;3.80;3.42;;;11.70;99.90;;;;;;4951881;28;20201;-69
2022/04/12 08:45:05;;;;;;;3.30;3.10;;;11.80;99.90;;;;;;4946729;28;20208;-67
2022/04/12 08:47:34;;;;;;;2.90;2.70;;;11.80;99.90;;;;;;4952689;28;20742;-67
2022/04/12 08:50:04;;;;;;;2.97;2.85;;;11.80;99.90;;;;;;4961120;28;20208;-66
2022/04/12 08:52:31;;;;;;;2.08;2.08;;;12.00;99.90;;;;;;4959876;28;20570;-67
2022/04/12 08:54:58;;;;;;;4.37;4.07;;;12.10;99.70;;;;;;4957512;28;20515;-68
2022/04/12 08:57:25;;;;;;;3.73;3.40;;;12.20;99.90;;;;;;4966252;28;20503;-67
2022/04/12 08:59:52;;;;;;;3.50;3.30;;;12.20;99.90;;;;;;4956031;28;20488;-68
2022/04/12 09:02:19;;;;;;;3.70;3.40;;;12.40;99.90;;;;;;4946655;28;20516;-67
2022/04/12 09:04:46;;;;;;;3.77;3.43;;;12.60;99.90;;;;;;4954150;28;20855;-66
2022/04/12 09:07:14;;;;;;;3.37;3.10;;;12.70;99.90;;;;;;4957060;28;20485;-68
2022/04/12 09:09:42;;;;;;;2.37;2.33;;;12.70;98.70;;;;;;4960722;28;20551;-67
2022/04/12 09:12:10;;;;;;;2.57;2.47;;;12.70;98.40;;;;;;4952701;28;20489;-67
2022/04/12 09:14:39;;;;;;;3.90;3.60;;;12.80;96.80;;;;;;4961120;28;20469;-67
2022/04/12 09:17:06;;;;;;;6.10;3.15;;;12.80;96.90;;;;;;4936964;28;20889;-67
2022/04/12 09:19:41;;;;;;;4.83;4.57;;;12.90;96.10;;;;;;4962586;28;20209;-69
2022/04/12 09:22:17;;;;;;;3.57;3.27;;;13.00;96.40;;;;;;4954143;28;20853;-67
2022/04/12 09:24:48;;;;;;;4.40;4.00;;;13.10;96.40;;;;;;4937630;29;21099;-67
2022/04/12 09:27:16;;;;;;;3.87;3.67;;;13.20;95.70;;;;;;4961424;28;20502;-69
2022/04/12 09:29:46;;;;;;;4.30;4.00;;;13.40;95.50;;;;;;4969718;28;20488;-68
2022/04/12 09:32:15;;;;;;;3.40;3.20;;;13.50;94.50;;;;;;4960115;28;20476;-68
2022/04/12 09:34:42;;;;;;;7.37;3.97;;;13.50;94.10;;;;;;4936885;29;20462;-68
2022/04/12 09:37:22;;;;;;;2.77;2.67;;;13.60;94.20;;;;;;4960739;28;20534;-68
2022/04/12 09:39:54;;;;;;;4.37;4.10;;;13.70;93.20;;;;;;4944473;28;20524;-69
2022/04/12 09:42:54;;;;;;;5.00;4.60;;;13.70;93.00;;;;;;4942379;28;20584;-68
2022/04/12 09:45:23;;;;;;;1.90;1.80;;;13.70;92.70;;;;;;4961145;28;20460;-68
2022/04/12 09:47:52;;;;;;;5.80;4.87;;;13.70;92.10;;;;;;4957987;28;20578;-68
2022/04/12 09:50:21;;;;;;;3.07;2.87;;;13.80;92.60;;;;;;4962374;28;20465;-68
2022/04/12 09:52:55;;;;;;;4.07;3.10;;;13.90;92.20;;;;;;4939289;28;20497;-69
2022/04/12 09:55:35;;;;;;;3.43;3.17;;;13.90;92.00;;;;;;4936490;29;20473;-70
2022/04/12 09:58:02;;;;;;;3.93;3.20;;;14.00;92.00;;;;;;4966442;28;20467;-68
2022/04/12 10:00:30;;;;;;;5.50;5.00;;;14.10;91.30;;;;;;4960233;28;20472;-68
2022/04/12 10:02:58;;;;;;;4.67;4.10;;;14.10;91.90;;;;;;4950722;28;20546;-68
2022/04/12 10:05:25;;;;;;;4.27;3.90;;;14.20;91.80;;;;;;4954507;28;20543;-68
2022/04/12 10:07:56;;;;;;;5.20;4.67;;;14.30;91.50;;;;;;4957059;28;20563;-68
2022/04/12 10:10:23;;;;;;;5.07;4.67;;;14.40;91.70;;;;;;4948886;28;20480;-68
2022/04/12 10:12:51;;;;;;;5.73;3.80;;;14.50;91.70;;;;;;4944576;28;20501;-70
2022/04/12 10:15:19;;;;;;;4.93;3.53;;;14.50;91.10;;;;;;4950186;28;20472;-70
2022/04/12 10:17:46;;;;;;;4.03;3.73;;;14.50;90.90;;;;;;4952182;28;20488;-69
2022/04/12 10:20:15;;;;;;;5.23;4.80;;;14.50;90.50;;;;;;4946813;28;20583;-68
2022/04/12 10:22:42;;;;;;;8.77;4.73;;;14.50;90.20;;;;;;4954444;28;20986;-68
2022/04/12 10:25:12;;;;;;;5.10;4.70;;;14.50;90.80;;;;;;4950921;28;20854;-69
2022/04/12 10:27:39;;;;;;;4.80;4.40;;;14.70;90.20;;;;;;4940400;28;20816;-69
2022/04/12 10:30:25;;;;;;;3.10;2.80;;;14.60;88.40;;;;;;4996952;23;20639;-67
2022/04/12 10:33:03;;;;;;;4.60;4.27;;;14.60;89.00;;;;;;4966543;28;20514;-67
2022/04/12 10:35:30;;;;;;;4.13;3.80;;;14.70;89.60;;;;;;4972203;28;20471;-67
2022/04/12 10:37:57;;;;;;;3.07;2.87;;;14.70;89.10;;;;;;4971677;28;20459;-69
2022/04/12 10:40:27;;;;;;;4.27;3.90;;;14.80;89.00;;;;;;4961082;28;21029;-68
2022/04/12 10:42:56;;;;;;;4.70;4.30;;;14.80;89.20;;;;;;4938060;28;20457;-68
2022/04/12 10:45:32;;;;;;;5.10;4.70;;;14.90;89.80;;;;;;4940127;29;20496;-68
2022/04/12 10:48:00;;;;;;;4.00;3.67;;;15.00;90.80;;;;;;4938701;29;20471;-68
2022/04/12 10:50:27;;;;;;;5.13;4.47;;;15.00;89.60;;;;;;4951681;29;20493;-68
2022/04/12 10:52:54;;;;;;;4.97;4.67;;;15.00;90.40;;;;;;4952685;28;20485;-68
2022/04/12 10:55:23;;;;;;;5.57;5.17;;;15.00;89.60;;;;;;4953031;28;20472;-69
2022/04/12 10:57:52;;;;;;;5.07;4.60;;;15.10;90.50;;;;;;4944403;28;20466;-67
2022/04/12 11:00:20;;;;;;;6.63;6.00;;;15.20;90.10;;;;;;4933320;29;20489;-68
2022/04/12 11:02:53;;;;;;;5.30;4.77;;;15.40;90.00;;;;;;4934501;29;20524;-68
2022/04/12 11:05:56;;;;;;;5.17;4.70;;;15.40;90.70;;;;;;4947225;28;20531;-68
2022/04/12 11:08:47;;;;;;;5.43;5.03;;;15.50;90.60;;;;;;4946384;28;20507;-68
2022/04/12 11:11:18;;;;;;;5.30;4.80;;;15.60;90.40;;;;;;4935713;28;20485;-67
2022/04/12 11:13:46;;;;;;;6.33;5.57;;;15.50;90.30;;;;;;4936826;28;20481;-67
2022/04/12 11:16:17;;;;;;;5.13;4.70;;;15.50;90.30;;;;;;4934154;29;20498;-68
2022/04/12 11:18:48;;;;;;;6.40;5.80;;;15.50;90.70;;;;;;4934771;29;20466;-68
2022/04/12 11:21:16;;;;;;;6.03;5.30;;;15.50;90.70;;;;;;4933732;29;20548;-68
2022/04/12 11:23:48;;;;;;;5.57;4.97;;;15.60;90.90;;;;;;4933835;29;20958;-68
2022/04/12 11:26:35;;;;;;;6.00;5.40;;;15.50;90.00;;;;;;4937586;29;20532;-69
2022/04/12 11:29:07;;;;;;;4.77;4.37;;;15.50;90.10;;;;;;4935645;29;20549;-68
2022/04/12 11:31:36;;;;;;;4.77;4.27;;;15.40;89.70;;;;;;4933217;29;20556;-68
2022/04/12 11:34:03;;;;;;;5.93;5.43;;;15.60;90.30;;;;;;4948402;28;20484;-69
2022/04/12 11:36:30;;;;;;;6.27;5.77;;;15.70;90.10;;;;;;4959581;28;20472;-69
2022/04/12 11:38:57;;;;;;;5.50;5.10;;;15.90;90.20;;;;;;4948328;29;20946;-68
2022/04/12 11:41:29;;;;;;;6.40;5.87;;;16.00;90.00;;;;;;4956236;28;20481;-69
2022/04/12 11:44:04;;;;;;;6.17;5.30;;;16.00;89.80;;;;;;4944383;28;20485;-69
2022/04/12 11:46:40;;;;;;;6.30;5.77;;;16.00;88.70;;;;;;4940917;29;20442;-69
2022/04/12 11:49:12;;;;;;;6.10;5.70;;;15.90;87.30;;;;;;4941247;29;20508;-68
2022/04/12 11:51:44;;;;;;;5.93;5.43;;;15.90;88.60;;;;;;4939241;28;20500;-68
2022/04/12 11:54:22;;;;;;;4.80;4.37;;;16.00;89.00;;;;;;4950087;29;20477;-68
2022/04/12 11:57:04;;;;;;;6.10;5.60;;;16.10;86.40;;;;;;4960054;28;20455;-69
2022/04/12 11:59:32;;;;;;;6.10;5.60;;;16.10;86.20;;;;;;4976828;28;20569;-69
2022/04/12 12:02:02;;;;;;;6.07;5.60;;;16.10;86.50;;;;;;4960458;28;21044;-69
2022/04/12 12:04:30;;;;;;;4.80;4.40;;;16.10;86.40;;;;;;4959089;28;20504;-69
2022/04/12 12:06:59;;;;;;;5.87;5.43;;;16.10;87.20;;;;;;4951210;28;20838;-68
2022/04/12 12:09:26;;;;;;;6.43;5.83;;;16.20;86.70;;;;;;4956368;28;20552;-69
2022/04/12 12:11:52;;;;;;;6.87;5.67;;;16.20;86.40;;;;;;4955182;28;20479;-69
2022/04/12 12:14:20;;;;;;;6.33;5.83;;;16.10;87.00;;;;;;4968239;28;21146;-69
2022/04/12 12:17:04;;;;;;;7.50;6.33;;;16.00;87.10;;;;;;4959982;28;20555;-69
2022/04/12 12:19:33;;;;;;;5.57;5.10;;;16.10;86.90;;;;;;4954666;28;20489;-69
2022/04/12 12:22:02;;;;;;;6.93;5.87;;;16.20;87.20;;;;;;4966772;28;20467;-69
2022/04/12 12:24:29;;;;;;;7.80;5.73;;;16.20;87.40;;;;;;4947878;28;20465;-70
2022/04/12 12:26:56;;;;;;;6.30;5.80;;;16.40;87.90;;;;;;4948729;28;20568;-69
2022/04/12 12:29:25;;;;;;;6.70;6.20;;;16.40;87.30;;;;;;4957723;28;21029;-69
2022/04/12 12:31:55;;;;;;;7.13;6.50;;;16.40;86.90;;;;;;4952431;28;20457;-72
2022/04/12 12:34:31;;;;;;;5.80;5.40;;;16.50;87.20;;;;;;4956435;28;21067;-69
2022/04/12 12:36:59;;;;;;;7.27;5.80;;;16.50;87.10;;;;;;4957231;28;20468;-70
2022/04/12 12:39:28;;;;;;;7.10;6.40;;;16.60;86.40;;;;;;4961025;28;20562;-69
2022/04/12 12:42:00;;;;;;;7.77;6.93;;;16.60;86.00;;;;;;4956044;28;20784;-69
2022/04/12 12:44:27;;;;;;;6.87;6.27;;;16.70;86.80;;;;;;4952619;28;20529;-69
2022/04/12 12:46:59;;;;;;;7.90;5.90;;;16.70;84.90;;;;;;4953901;28;20519;-70
2022/04/12 12:49:37;;;;;;;6.43;5.83;;;16.70;85.40;;;;;;4947614;28;20518;-69
2022/04/12 12:52:05;;;;;;;6.00;5.50;;;16.80;85.60;;;;;;4959546;28;20547;-70
2022/04/12 12:54:32;;;;;;;6.13;5.63;;;16.80;85.10;;;;;;4958082;28;20926;-70
2022/04/12 12:57:01;;;;;;;6.00;5.53;;;16.80;84.70;;;;;;4960252;28;20465;-69
2022/04/12 12:59:34;;;;;;;6.33;5.63;;;16.90;84.40;;;;;;4955380;28;20493;-69
2022/04/12 13:02:08;;;;;;;6.83;6.33;;;16.90;84.40;;;;;;4954493;28;20551;-69
2022/04/12 13:04:38;;;;;;;6.33;5.83;;;17.00;82.50;;;;;;4952225;28;20471;-69
2022/04/12 13:07:06;;;;;;;5.67;5.10;;;16.90;82.60;;;;;;4953087;28;20455;-69
2022/04/12 13:09:34;;;;;;;5.53;5.13;;;16.80;82.80;;;;;;4958067;28;20560;-69
2022/04/12 13:12:01;;;;;;;7.00;5.97;;;16.80;83.10;;;;;;4944783;28;20973;-69
2022/04/12 13:14:28;;;;;;;6.83;5.73;;;16.80;82.50;;;;;;4938992;28;20552;-68
2022/04/12 13:16:56;;;;;;;6.83;6.20;;;16.70;82.90;;;;;;4957953;28;21210;-69
2022/04/12 13:19:26;;;;;;;6.88;6.28;;;16.70;83.30;;;;;;4955417;28;20471;-68
2022/04/12 13:21:55;;;;;;;5.47;5.07;;;16.70;81.60;;;;;;4958042;28;20472;-68
2022/04/12 13:24:22;;;;;;;6.00;5.40;;;16.60;82.00;;;;;;4949739;28;20500;-68
2022/04/12 13:26:50;;;;;;;6.53;5.93;;;16.60;82.80;;;;;;4974379;28;20471;-68
2022/04/12 13:29:18;;;;;;;6.20;5.67;;;16.70;83.30;;;;;;4966015;28;20980;-68
2022/04/12 13:31:44;;;;;;;6.97;5.23;;;16.70;82.80;;;;;;4954103;28;20489;-68
2022/04/12 13:34:11;;;;;;;6.57;5.40;;;16.80;80.70;;;;;;4943989;28;20555;-68
2022/04/12 13:36:38;;;;;;;7.13;5.70;;;16.80;81.60;;;;;;4951787;28;20522;-68
2022/04/12 13:39:08;;;;;;;6.17;5.60;;;16.90;81.00;;;;;;4964035;28;20469;-68
2022/04/12 13:41:36;;;;;;;5.53;5.10;;;16.90;80.90;;;;;;4946378;28;20465;-68
2022/04/12 13:44:03;;;;;;;7.03;5.10;;;16.90;80.70;;;;;;4937159;29;20516;-68
2022/04/12 13:46:29;;;;;;;5.60;5.20;;;16.90;80.30;;;;;;4935437;29;20477;-68
2022/04/12 13:48:56;;;;;;;5.40;5.00;;;17.10;81.40;;;;;;4944476;29;20469;-68
2022/04/12 13:51:23;;;;;;;5.63;5.13;;;17.10;80.40;;;;;;4954215;28;20492;-68
2022/04/12 13:53:49;;;;;;;6.33;5.70;;;17.20;80.90;;;;;;4948060;28;20522;-68
2022/04/12 13:56:17;;;;;;;7.30;5.77;;;17.20;79.90;;;;;;4950959;29;20524;-68
2022/04/12 13:58:44;;;;;;;5.90;5.47;;;17.30;80.80;;;;;;4950244;28;20553;-67
2022/04/12 14:01:11;;;;;;;6.37;5.77;;;17.40;80.20;;;;;;4947742;28;20563;-68
2022/04/12 14:03:37;;;;;;;6.70;6.20;;;17.60;80.20;;;;;;4959813;28;20476;-69
2022/04/12 14:06:04;;;;;;;6.20;5.70;;;17.60;79.30;;;;;;4953840;28;20941;-67
2022/04/12 14:08:32;;;;;;;10.10;5.53;;;17.70;79.60;;;;;;4964331;28;20996;-69
2022/04/12 14:10:59;;;;;;;9.63;5.90;;;17.60;80.60;;;;;;4953636;28;20841;-66
2022/04/12 14:13:28;;;;;;;5.30;5.00;;;17.60;79.40;;;;;;4958023;28;20463;-68
2022/04/12 14:15:54;;;;;;;7.83;7.03;;;17.50;79.90;;;;;;4954846;28;20464;-67
2022/04/12 14:18:22;;;;;;;5.57;5.17;;;17.40;90.20;;;;;;4952956;28;20525;-68
2022/04/12 14:20:48;;;;;;;6.03;5.53;;;17.40;79.40;;;;;;4949403;28;20543;-67
2022/04/12 14:23:15;;;;;;;6.57;5.97;;;17.30;80.10;;;;;;4944526;28;20466;-67
2022/04/12 14:25:42;;;;;;;5.60;5.30;;;17.30;80.20;;;;;;4950752;28;20947;-68
2022/04/12 14:28:10;;;;;;;7.00;6.50;;;17.30;80.10;;;;;;4955058;28;20464;-68
2022/04/12 14:30:39;;;;;;;6.93;6.13;;;17.20;81.50;;;;;;4952561;28;20500;-69
2022/04/12 14:33:07;;;;;;;7.63;6.37;;;17.20;81.70;;;;;;4960156;28;21177;-69
2022/04/12 14:35:34;;;;;;;6.47;6.00;;;17.30;81.00;;;;;;4949891;28;20821;-69
2022/04/12 14:38:03;;;;;;;6.87;6.17;;;17.40;81.20;;;;;;4955170;28;20452;-69
2022/04/12 14:40:31;;;;;;;8.77;6.23;;;17.40;80.90;;;;;;4954268;28;21023;-69
2022/04/12 14:42:58;;;;;;;6.50;5.50;;;17.40;80.70;;;;;;4961732;28;20471;-69
2022/04/12 14:45:25;;;;;;;7.73;6.27;;;17.50;80.50;;;;;;4962047;28;20470;-69
2022/04/12 14:47:53;;;;;;;6.80;6.20;;;17.50;80.40;;;;;;4953496;28;20469;-70
2022/04/12 14:50:20;;;;;;;6.53;5.40;;;17.60;79.40;;;;;;4944271;28;20633;-69
2022/04/12 14:52:47;;;;;;;6.90;6.40;;;17.50;79.40;;;;;;4948435;28;20520;-69
2022/04/12 14:55:13;;;;;;;6.70;6.10;;;17.60;81.00;;;;;;4953021;28;20499;-69
2022/04/12 14:57:40;;;;;;;6.70;6.10;;;17.60;80.20;;;;;;4942475;28;20547;-69
2022/04/12 15:00:08;;;;;;;6.87;5.90;;;17.60;79.50;;;;;;4948670;28;20488;-70
2022/04/12 15:02:35;;;;;;;6.03;5.53;;;17.60;79.00;;;;;;4951943;28;20962;-69
2022/04/12 15:05:03;;;;;;;5.93;5.33;;;17.60;79.80;;;;;;4945460;28;20470;-70
2022/04/12 15:07:30;;;;;;;5.23;4.80;;;17.60;79.20;;;;;;4953754;28;20460;-69
2022/04/12 15:09:58;;;;;;;6.13;5.63;;;17.50;78.70;;;;;;4956779;28;20501;-69
2022/04/12 15:12:25;;;;;;;5.93;5.53;;;17.50;80.90;;;;;;4953079;28;20600;-70
2022/04/12 15:14:52;;;;;;;6.00;5.50;;;17.50;80.50;;;;;;4958234;28;20488;-70
2022/04/12 15:17:18;;;;;;;5.60;5.13;;;17.40;78.80;;;;;;4946446;28;20619;-67
2022/04/12 15:19:45;;;;;;;6.20;5.60;;;17.40;79.00;;;;;;4940993;28;20501;-69
2022/04/12 15:22:13;;;;;;;7.37;5.93;;;17.40;80.20;;;;;;4943696;28;20517;-69
2022/04/12 15:24:40;;;;;;;6.43;5.50;;;17.40;81.00;;;;;;4952855;28;20501;-69
2022/04/12 15:27:06;;;;;;;6.17;5.40;;;17.40;80.00;;;;;;4963283;28;21027;-69
2022/04/12 15:29:33;;;;;;;6.47;5.87;;;17.30;80.00;;;;;;4952915;28;20497;-69
2022/04/12 15:32:00;;;;;;;8.13;5.50;;;17.30;80.20;;;;;;4967882;28;20456;-69
2022/04/12 15:34:26;;;;;;;5.53;5.03;;;17.30;81.10;;;;;;4965087;28;20496;-70
2022/04/12 15:36:53;;;;;;;5.23;4.73;;;17.30;80.30;;;;;;4964188;28;20464;-69
2022/04/12 15:39:24;;;;;;;5.87;5.30;;;17.20;79.70;;;;;;4947733;28;20486;-70
2022/04/12 15:41:51;;;;;;;5.70;5.20;;;17.20;80.10;;;;;;4958686;28;20938;-69
2022/04/12 15:44:18;;;;;;;6.33;5.80;;;17.10;80.80;;;;;;4959924;28;20534;-69
2022/04/12 15:46:44;;;;;;;6.27;5.13;;;17.20;80.90;;;;;;4956504;28;20527;-69
2022/04/12 15:49:11;;;;;;;4.97;4.50;;;17.20;81.10;;;;;;4952336;28;20478;-69
2022/04/12 15:51:38;;;;;;;5.47;5.00;;;17.10;81.00;;;;;;4957921;28;20467;-69
2022/04/12 15:54:05;;;;;;;5.80;5.30;;;17.10;81.60;;;;;;4950971;28;20473;-69
2022/04/12 15:56:33;;;;;;;5.33;4.70;;;17.00;80.80;;;;;;4952431;28;20472;-69
2022/04/12 15:59:00;;;;;;;7.60;5.40;;;17.00;80.40;;;;;;4956745;28;20530;-69
2022/04/12 16:01:26;;;;;;;5.97;5.37;;;17.00;80.50;;;;;;4958719;28;20489;-69
2022/04/12 16:03:53;;;;;;;5.03;4.67;;;16.90;80.60;;;;;;4955258;28;20487;-69
2022/04/12 16:06:20;;;;;;;7.20;5.40;;;16.90;82.30;;;;;;4955240;28;20460;-69
2022/04/12 16:08:47;;;;;;;4.87;4.47;;;16.90;81.20;;;;;;4955514;28;20495;-69
2022/04/12 16:11:14;;;;;;;6.93;4.60;;;16.90;81.50;;;;;;4955692;28;20925;-69
2022/04/12 16:13:42;;;;;;;5.53;5.13;;;16.90;82.20;;;;;;4942432;28;20551;-70
2022/04/12 16:16:09;;;;;;;4.70;4.40;;;16.80;80.60;;;;;;4952011;28;20504;-70
2022/04/12 16:18:36;;;;;;;5.33;4.93;;;16.80;80.90;;;;;;4955764;28;20467;-69
2022/04/12 16:21:03;;;;;;;4.70;4.40;;;16.80;80.70;;;;;;4963175;28;20562;-69
2022/04/12 16:23:30;;;;;;;5.13;4.77;;;16.80;81.30;;;;;;4967078;28;20795;-69
2022/04/12 16:25:56;;;;;;;5.27;4.80;;;16.80;80.80;;;;;;4947536;28;20465;-69
2022/04/12 16:28:23;;;;;;;6.87;4.50;;;16.80;81.60;;;;;;4944055;28;20473;-68
2022/04/12 16:30:51;;;;;;;6.00;4.90;;;16.70;81.50;;;;;;4943048;28;20499;-68
2022/04/12 16:33:18;;;;;;;5.43;4.87;;;16.70;80.40;;;;;;4956016;28;20475;-70
2022/04/12 16:35:45;;;;;;;5.40;5.00;;;16.70;81.70;;;;;;4962559;28;20554;-69
2022/04/12 16:38:12;;;;;;;5.50;4.60;;;16.70;81.00;;;;;;4970131;28;20464;-67
2022/04/12 16:40:39;;;;;;;4.27;3.93;;;16.70;80.70;;;;;;4959986;28;20530;-68
2022/04/12 16:43:07;;;;;;;4.80;4.40;;;16.70;80.90;;;;;;4955888;28;21136;-70
2022/04/12 16:45:34;;;;;;;4.57;4.27;;;16.60;81.20;;;;;;4961792;28;20501;-68
2022/04/12 16:48:02;;;;;;;4.60;4.00;;;16.60;81.30;;;;;;4962756;28;20579;-68
2022/04/12 16:50:30;;;;;;;4.80;4.20;;;16.60;81.80;;;;;;4959920;28;21290;-70
2022/04/12 16:52:56;;;;;;;4.40;4.10;;;16.60;82.80;;;;;;4963829;28;20538;-70
2022/04/12 16:55:24;;;;;;;3.97;3.77;;;16.50;83.10;;;;;;4961717;28;21009;-68
2022/04/12 16:57:51;;;;;;;5.13;4.80;;;16.50;82.80;;;;;;4962305;28;20482;-68